Time;durP1;ratioP1;P1;durP2;ratioP2;P2;SDS_P1;SDS_P2;PMS_P1;PMS_P2;Temp;Humidity;BMP_temperature;BMP_pressure;BME280_temperature;BME280_humidity;BME280_pressure;Samples;Min_cycle;Max_cycle;Signal;HPM_P1;HPM_P2
2023/05/02 00:00:29;;;;;;;7.25;1.52;;;;;;;13.44;66.60;100459.19;5061396;28;20056;-71
2023/05/02 00:02:55;;;;;;;6.60;1.38;;;;;;;13.44;66.57;100453.00;5039009;28;20040;-71
2023/05/02 00:05:21;;;;;;;6.17;1.70;;;;;;;13.41;66.58;100450.38;5056683;28;20484;-71
2023/05/02 00:07:47;;;;;;;6.90;1.55;;;;;;;13.41;66.78;100448.63;5056870;28;20476;-71
2023/05/02 00:10:12;;;;;;;5.40;1.57;;;;;;;13.41;66.97;100445.06;5067933;28;20507;-71
2023/05/02 00:12:37;;;;;;;6.03;1.40;;;;;;;13.39;66.95;100433.66;5065525;28;20021;-71
2023/05/02 00:15:04;;;;;;;7.47;2.07;;;;;;;13.40;67.05;100430.09;5056747;28;20021;-71
2023/05/02 00:17:29;;;;;;;7.32;1.95;;;;;;;13.40;66.96;100436.28;5069513;28;20017;-71
2023/05/02 00:19:55;;;;;;;6.57;1.90;;;;;;;13.42;67.09;100428.31;5056312;28;20040;-71
2023/05/02 00:22:20;;;;;;;7.93;1.80;;;;;;;13.42;67.04;100438.88;5056778;28;20021;-71
2023/05/02 00:24:46;;;;;;;7.43;1.57;;;;;;;13.38;67.11;100438.03;5051368;28;20458;-71
2023/05/02 00:27:11;;;;;;;5.50;1.47;;;;;;;13.36;67.23;100434.53;5056608;28;20029;-71
2023/05/02 00:29:37;;;;;;;7.47;1.60;;;;;;;13.36;67.30;100434.53;5056359;28;20016;-71
2023/05/02 00:32:04;;;;;;;5.38;1.30;;;;;;;13.35;67.30;100424.84;5053122;28;20063;-71
2023/05/02 00:34:30;;;;;;;9.07;1.80;;;;;;;13.34;67.58;100431.94;5075555;28;20032;-71
2023/05/02 00:36:56;;;;;;;6.33;1.57;;;;;;;13.32;67.55;100427.56;5076500;28;20059;-71
2023/05/02 00:39:21;;;;;;;5.63;1.70;;;;;;;13.32;67.79;100428.44;5076303;28;20108;-71
2023/05/02 00:41:47;;;;;;;6.57;1.60;;;;;;;13.34;67.71;100425.75;5055506;28;20380;-71
2023/05/02 00:44:12;;;;;;;6.10;1.70;;;;;;;13.37;67.44;100419.56;5059196;28;20021;-71
2023/05/02 00:46:38;;;;;;;6.38;1.60;;;;;;;13.39;67.44;100420.41;5056259;28;20079;-71
2023/05/02 00:49:03;;;;;;;5.40;1.50;;;;;;;13.36;67.72;100423.97;5038476;28;20090;-71
2023/05/02 00:51:29;;;;;;;8.00;1.67;;;;;;;13.31;67.99;100409.94;5060581;28;20021;-71
2023/05/02 00:53:56;;;;;;;15.57;2.23;;;;;;;13.31;67.87;100417.88;5056063;28;20802;-71
2023/05/02 00:56:22;;;;;;;5.28;1.55;;;;;;;13.31;67.73;100412.56;5056320;28;20025;-71
2023/05/02 00:58:48;;;;;;;7.30;1.50;;;;;;;13.26;67.81;100414.41;5056057;28;20052;-71
2023/05/02 01:01:38;;;;;;;6.60;1.48;;;;;;;13.21;68.16;100404.78;5069368;28;20029;-71
2023/05/02 01:04:24;;;;;;;7.28;1.60;;;;;;;13.18;68.18;100410.09;5076057;28;20020;-71
2023/05/02 01:07:11;;;;;;;7.22;1.75;;;;;;;13.17;67.98;100402.19;5076134;28;20020;-70
2023/05/02 01:09:45;;;;;;;6.82;1.70;;;;;;;13.18;68.20;100410.09;5076053;28;20392;-71
2023/05/02 01:12:10;;;;;;;6.70;1.87;;;;;;;13.15;68.06;100410.16;5064673;28;20021;-71
2023/05/02 01:14:41;;;;;;;9.83;2.00;;;;;;;13.08;68.23;100403.16;5055858;28;20031;-71
2023/05/02 01:17:13;;;;;;;7.18;2.22;;;;;;;13.03;68.49;100407.63;5069484;28;20512;-71
2023/05/02 01:19:42;;;;;;;9.10;2.10;;;;;;;12.96;68.50;100408.63;5057181;28;20399;-71
2023/05/02 01:22:10;;;;;;;7.70;2.10;;;;;;;12.86;68.90;100408.69;5059926;28;20025;-71
2023/05/02 01:25:03;;;;;;;9.85;2.30;;;;;;;12.82;69.01;100404.34;5072889;28;20050;-71
2023/05/02 01:27:40;;;;;;;8.73;2.30;;;;;;;12.76;69.31;100402.63;5021087;28;20535;-71
2023/05/02 01:30:08;;;;;;;5.75;2.00;;;;;;;12.75;68.97;100405.31;5079620;28;20032;-71
2023/05/02 01:32:38;;;;;;;9.10;1.92;;;;;;;12.77;69.02;100409.66;5060997;28;20029;-71
2023/05/02 01:35:05;;;;;;;6.03;1.60;;;;;;;12.83;68.58;100406.09;5079595;28;20046;-71
2023/05/02 01:37:32;;;;;;;11.18;2.13;;;;;;;12.86;68.79;100411.34;5061582;28;20033;-71
2023/05/02 01:40:00;;;;;;;6.03;1.60;;;;;;;12.86;68.70;100411.34;5061435;28;20512;-71
2023/05/02 01:42:26;;;;;;;8.05;1.95;;;;;;;12.86;68.57;100406.06;5076381;28;20021;-71
2023/05/02 01:44:54;;;;;;;6.72;2.00;;;;;;;12.88;68.41;100406.91;5079430;28;20032;-71
2023/05/02 01:47:22;;;;;;;7.07;1.70;;;;;;;12.91;68.35;100417.47;5079259;28;20492;-71
2023/05/02 01:49:47;;;;;;;6.13;1.73;;;;;;;12.88;68.32;100406.91;5079387;28;20427;-71
2023/05/02 01:52:14;;;;;;;6.20;1.77;;;;;;;12.87;68.20;100405.16;5062809;28;20032;-71
2023/05/02 01:54:41;;;;;;;6.55;1.77;;;;;;;12.87;68.56;100401.66;5059327;28;20107;-71
2023/05/02 01:57:08;;;;;;;6.27;1.80;;;;;;;12.83;68.23;100406.09;5041303;28;20106;-71
2023/05/02 01:59:36;;;;;;;6.20;1.70;;;;;;;12.75;68.41;100402.69;5060651;28;20059;-71
2023/05/02 02:02:03;;;;;;;8.35;1.75;;;;;;;12.71;68.42;100400.97;5062339;28;20507;-71
2023/05/02 02:04:30;;;;;;;5.53;1.70;;;;;;;12.63;68.60;100404.53;5058959;28;20025;-71
2023/05/02 02:07:22;;;;;;;6.95;1.77;;;;;;;12.55;68.82;100409.03;5059073;28;20052;-71
2023/05/02 02:09:48;;;;;;;7.37;1.90;;;;;;;12.48;69.15;100412.63;5066905;28;20086;-71
2023/05/02 02:12:25;;;;;;;6.65;1.70;;;;;;;12.39;69.16;100412.69;5051035;28;20028;-71
2023/05/02 02:14:57;;;;;;;7.65;1.90;;;;;;;12.33;69.50;100413.66;5058679;28;20090;-71
2023/05/02 02:17:28;;;;;;;6.93;2.08;;;;;;;12.30;69.25;100419.81;5074192;28;20020;-71
2023/05/02 02:19:56;;;;;;;9.60;1.80;;;;;;;12.26;69.33;100420.75;5058574;28;20103;-71
2023/05/02 02:22:25;;;;;;;5.07;1.52;;;;;;;12.28;69.39;100421.59;5041070;28;20401;-71
2023/05/02 02:24:52;;;;;;;6.10;1.80;;;;;;;12.31;69.22;100423.34;5073621;28;20047;-71
2023/05/02 02:27:18;;;;;;;8.00;1.70;;;;;;;12.32;69.22;100423.31;5078792;28;20468;-71
2023/05/02 02:29:43;;;;;;;5.97;1.80;;;;;;;12.34;69.20;100429.47;5078425;28;20059;-71
2023/05/02 02:32:09;;;;;;;6.53;1.58;;;;;;;12.32;69.32;100428.59;5062251;28;20028;-71
2023/05/02 02:34:34;;;;;;;10.97;1.80;;;;;;;12.30;69.41;100426.88;5075826;28;20092;-71
2023/05/02 02:37:07;;;;;;;7.70;2.00;;;;;;;12.27;69.22;100429.53;5078648;28;20021;-71
2023/05/02 02:39:43;;;;;;;9.30;2.20;;;;;;;12.20;69.34;100434.00;5060342;28;20074;-71
2023/05/02 02:42:17;;;;;;;6.43;1.70;;;;;;;12.13;69.34;100443.72;5075661;28;20056;-71
2023/05/02 02:45:08;;;;;;;8.50;2.05;;;;;;;12.08;69.64;100444.66;5060097;28;20025;-71
2023/05/02 02:47:46;;;;;;;6.17;1.90;;;;;;;12.06;69.78;100449.97;5078317;28;20078;-71
2023/05/02 02:50:35;;;;;;;7.53;1.83;;;;;;;11.99;69.93;100446.44;5078055;28;20032;-71
2023/05/02 02:53:12;;;;;;;7.10;1.67;;;;;;;11.99;69.89;100442.91;5058292;28;20143;-71
2023/05/02 02:55:46;;;;;;;5.72;1.83;;;;;;;11.99;69.79;100453.47;5040346;28;20029;-71
2023/05/02 02:58:28;;;;;;;6.57;1.77;;;;;;;11.97;69.95;100448.22;5040122;28;20033;-71
2023/05/02 03:00:54;;;;;;;5.60;1.67;;;;;;;11.96;69.85;100450.84;5039684;28;20072;-71
2023/05/02 03:03:27;;;;;;;6.07;1.70;;;;;;;11.90;69.71;100444.75;5057851;28;20071;-71
2023/05/02 03:05:55;;;;;;;6.43;1.98;;;;;;;11.85;69.86;100438.63;5058103;28;20060;-71
2023/05/02 03:08:20;;;;;;;6.60;2.25;;;;;;;11.80;70.20;100439.53;5057950;28;20454;-71
2023/05/02 03:10:46;;;;;;;7.27;2.17;;;;;;;11.76;70.23;100444.84;5074363;28;20031;-71
2023/05/02 03:13:11;;;;;;;10.30;2.10;;;;;;;11.78;70.00;100445.69;5045297;28;20473;-71
2023/05/02 03:15:52;;;;;;;6.73;1.87;;;;;;;11.76;70.08;100444.84;5043414;28;20029;-71
2023/05/02 03:18:18;;;;;;;9.23;1.92;;;;;;;11.76;70.31;100444.84;5063911;28;20024;-71
2023/05/02 03:20:43;;;;;;;7.28;1.90;;;;;;;11.75;70.26;100442.19;5068840;28;20020;-71
2023/05/02 03:23:09;;;;;;;8.30;2.30;;;;;;;11.74;70.36;100443.06;5073995;28;20036;-71
2023/05/02 03:25:35;;;;;;;6.83;2.40;;;;;;;11.69;70.50;100452.78;5057630;28;20711;-71
2023/05/02 03:28:01;;;;;;;9.38;2.20;;;;;;;11.63;70.16;100446.66;5057629;28;20070;-71
2023/05/02 03:30:26;;;;;;;6.63;2.00;;;;;;;11.60;70.33;100445.78;5056993;28;20025;-71
2023/05/02 03:32:52;;;;;;;8.30;1.90;;;;;;;11.56;70.49;100444.06;5060948;28;20019;-71
2023/05/02 03:35:17;;;;;;;8.53;2.13;;;;;;;11.49;70.78;100441.47;5077282;28;20020;-71
2023/05/02 03:37:43;;;;;;;7.97;1.80;;;;;;;11.43;70.78;100444.09;5073640;28;20035;-71
2023/05/02 03:40:09;;;;;;;6.28;2.13;;;;;;;11.41;70.54;100443.25;5064184;28;20077;-71
2023/05/02 03:42:40;;;;;;;7.23;1.97;;;;;;;11.39;70.53;100438.88;5059452;28;20021;-71
2023/05/02 03:45:07;;;;;;;7.45;1.70;;;;;;;11.39;70.65;100439.75;5057046;28;20025;-71
2023/05/02 03:47:33;;;;;;;6.93;1.70;;;;;;;11.42;70.69;100438.88;5039120;28;20055;-71
2023/05/02 03:49:58;;;;;;;5.50;1.65;;;;;;;11.44;70.53;100435.31;5058738;28;20060;-71
2023/05/02 03:52:24;;;;;;;5.77;1.70;;;;;;;11.44;70.63;100443.22;5059376;28;20045;-71
2023/05/02 03:54:50;;;;;;;7.65;2.05;;;;;;;11.37;70.59;100448.56;5057178;28;20050;-71
2023/05/02 03:57:16;;;;;;;6.85;1.73;;;;;;;11.27;71.11;100445.09;5060948;28;20082;-71
2023/05/02 03:59:44;;;;;;;10.17;1.93;;;;;;;11.25;71.27;100446.84;5074354;28;20049;-71
2023/05/02 04:02:12;;;;;;;7.88;2.22;;;;;;;11.27;70.95;100439.81;5038693;28;20070;-71
2023/05/02 04:04:39;;;;;;;6.80;1.80;;;;;;;11.29;70.63;100446.81;5056690;28;20096;-71
2023/05/02 04:07:06;;;;;;;7.37;2.03;;;;;;;11.28;70.60;100452.09;5038965;28;20524;-71
2023/05/02 04:09:32;;;;;;;10.45;2.00;;;;;;;11.27;70.75;100450.34;5066802;28;20012;-71
2023/05/02 04:11:57;;;;;;;9.63;1.98;;;;;;;11.26;70.95;100449.47;5072402;28;20039;-71
2023/05/02 04:14:23;;;;;;;9.17;1.93;;;;;;;11.27;70.63;100455.63;5058819;28;20115;-71
2023/05/02 04:16:49;;;;;;;7.17;1.80;;;;;;;11.26;70.38;100443.31;5059833;28;20030;-72
2023/05/02 04:19:15;;;;;;;9.85;2.22;;;;;;;11.20;70.66;100455.63;5076730;28;20112;-71
2023/05/02 04:21:41;;;;;;;10.10;2.10;;;;;;;11.19;70.95;100459.16;5076791;28;20104;-71
2023/05/02 04:24:07;;;;;;;6.57;1.90;;;;;;;11.18;70.54;100459.16;5076625;28;20058;-71
2023/05/02 04:26:33;;;;;;;6.63;1.90;;;;;;;11.19;70.69;100466.19;5058121;28;20025;-71
2023/05/02 04:28:58;;;;;;;6.65;2.00;;;;;;;11.17;70.76;100463.53;5056615;28;20031;-71
2023/05/02 04:31:24;;;;;;;6.00;1.60;;;;;;;11.19;70.91;100463.56;5055941;28;20462;-71
2023/05/02 04:33:49;;;;;;;7.17;1.70;;;;;;;11.20;70.91;100460.91;5056378;28;20384;-71
2023/05/02 04:36:15;;;;;;;8.70;1.70;;;;;;;11.19;70.80;100455.66;5038628;28;20070;-71
2023/05/02 04:38:41;;;;;;;9.48;2.30;;;;;;;11.17;70.46;100466.19;5057955;28;20047;-71
2023/05/02 04:41:06;;;;;;;7.97;1.80;;;;;;;11.11;70.72;100463.56;5048889;28;20094;-71
2023/05/02 04:43:31;;;;;;;10.07;1.70;;;;;;;11.05;70.59;100467.09;5056564;28;20128;-71
2023/05/02 04:45:57;;;;;;;6.47;1.90;;;;;;;11.02;70.69;100469.75;5056412;28;20029;-71
2023/05/02 04:48:24;;;;;;;8.60;1.80;;;;;;;11.00;70.71;100473.28;5056172;28;20055;-71
2023/05/02 04:50:49;;;;;;;7.60;2.10;;;;;;;10.99;71.13;100469.75;5042852;28;20271;-71
2023/05/02 04:53:15;;;;;;;6.88;1.80;;;;;;;10.99;71.02;100472.38;5056389;28;20047;-71
2023/05/02 04:55:41;;;;;;;6.77;2.20;;;;;;;11.00;70.70;100476.78;5059669;28;20025;-71
2023/05/02 04:58:07;;;;;;;5.95;1.80;;;;;;;11.00;70.80;100479.41;5060638;28;20450;-71
2023/05/02 05:00:32;;;;;;;8.33;2.10;;;;;;;11.01;70.82;100480.31;5065571;28;20060;-71
2023/05/02 05:02:58;;;;;;;6.37;2.07;;;;;;;10.98;70.97;100491.72;5042184;28;20025;-71
2023/05/02 05:05:23;;;;;;;6.47;2.05;;;;;;;10.96;70.48;100489.97;5042482;28;20020;-71
2023/05/02 05:07:48;;;;;;;8.97;2.83;;;;;;;10.94;70.96;100489.97;5042519;28;20029;-71
2023/05/02 05:10:14;;;;;;;7.03;2.00;;;;;;;10.96;70.84;100498.75;5071906;28;20029;-71
2023/05/02 05:12:39;;;;;;;6.50;1.87;;;;;;;10.95;71.16;100507.53;5061976;28;20548;-71
2023/05/02 05:15:06;;;;;;;7.07;2.20;;;;;;;10.99;71.05;100503.16;5080196;28;20607;-71
2023/05/02 05:17:31;;;;;;;8.93;1.93;;;;;;;11.03;70.44;100500.50;5077497;28;20052;-71
2023/05/02 05:19:56;;;;;;;10.05;2.22;;;;;;;11.07;70.51;100498.72;5059938;28;20578;-71
2023/05/02 05:22:22;;;;;;;7.73;2.50;;;;;;;11.10;70.91;100506.63;5060125;28;20029;-71
2023/05/02 05:24:52;;;;;;;12.83;2.10;;;;;;;11.12;70.45;100506.63;5060181;28;20166;-71
2023/05/02 05:27:17;;;;;;;8.43;2.50;;;;;;;11.08;70.50;100503.13;5060032;28;20025;-71
2023/05/02 05:29:43;;;;;;;10.03;2.17;;;;;;;11.08;70.63;100504.88;5059903;28;20033;-71
2023/05/02 05:32:09;;;;;;;6.80;2.10;;;;;;;11.08;71.09;100504.88;5041705;28;20024;-71
2023/05/02 05:34:34;;;;;;;6.60;2.50;;;;;;;11.10;71.23;100505.78;5059320;28;20021;-71
2023/05/02 05:37:00;;;;;;;9.10;2.53;;;;;;;11.18;71.07;100507.47;5079983;28;20169;-71
2023/05/02 05:39:25;;;;;;;11.37;2.40;;;;;;;11.47;70.29;100506.53;5043598;28;20779;-71
2023/05/02 05:41:51;;;;;;;9.43;2.30;;;;;;;11.84;69.17;100500.19;5069143;28;20036;-71
2023/05/02 05:44:17;;;;;;;10.20;2.60;;;;;;;12.15;68.56;100500.03;5059681;28;20074;-72
2023/05/02 05:46:42;;;;;;;8.57;2.50;;;;;;;12.39;67.88;100491.94;5059489;28;20029;-71
2023/05/02 05:49:08;;;;;;;8.73;2.83;;;;;;;12.60;67.39;100502.31;5059381;28;20025;-71
2023/05/02 05:51:34;;;;;;;7.37;2.33;;;;;;;12.81;66.94;100505.66;5064088;28;20105;-71
2023/05/02 05:53:59;;;;;;;5.97;1.95;;;;;;;13.07;66.40;100496.59;5059396;28;20044;-71
2023/05/02 05:56:25;;;;;;;7.40;2.23;;;;;;;13.31;65.81;100500.75;5059565;28;20117;-71
2023/05/02 05:58:51;;;;;;;7.50;2.53;;;;;;;13.40;65.81;100497.13;5059232;28;20049;-72
2023/05/02 06:01:16;;;;;;;11.70;2.33;;;;;;;13.36;66.19;100498.03;5064426;28;20078;-72
2023/05/02 06:03:42;;;;;;;6.50;2.33;;;;;;;13.34;66.29;100498.06;5059094;28;20021;-71
2023/05/02 06:06:07;;;;;;;6.27;2.27;;;;;;;13.40;66.44;100498.88;5058699;28;20036;-72
2023/05/02 06:08:33;;;;;;;7.13;2.50;;;;;;;13.44;66.71;100495.31;5074716;28;20109;-72
2023/05/02 06:10:58;;;;;;;10.67;2.50;;;;;;;13.37;66.84;100499.78;5069559;28;20551;-72
2023/05/02 06:13:24;;;;;;;7.10;2.27;;;;;;;13.37;67.13;100493.63;5058807;28;20017;-72
2023/05/02 06:15:50;;;;;;;10.38;2.40;;;;;;;13.51;66.89;100501.44;5066705;28;20043;-72
2023/05/02 06:18:15;;;;;;;9.80;2.40;;;;;;;13.58;66.90;100496.03;5066132;28;20028;-72
2023/05/02 06:20:41;;;;;;;7.10;2.35;;;;;;;13.57;67.06;100490.75;5058937;28;20138;-72
2023/05/02 06:23:06;;;;;;;7.53;2.37;;;;;;;13.48;67.54;100497.94;5059263;28;20089;-72
2023/05/02 06:25:32;;;;;;;8.07;2.60;;;;;;;13.33;68.21;100498.97;5059034;28;20159;-72
2023/05/02 06:27:58;;;;;;;8.25;2.40;;;;;;;13.21;68.96;100499.09;5058878;28;20035;-72
2023/05/02 06:30:23;;;;;;;10.10;2.30;;;;;;;13.16;68.93;100493.88;5058480;28;20025;-71
2023/05/02 06:32:49;;;;;;;6.87;2.53;;;;;;;13.21;69.05;100505.25;5061466;28;20024;-71
2023/05/02 06:35:14;;;;;;;10.60;3.10;;;;;;;13.23;69.18;100502.59;5078987;28;20267;-71
2023/05/02 06:37:40;;;;;;;10.27;2.50;;;;;;;13.26;69.26;100501.69;5073974;28;20017;-72
2023/05/02 06:40:06;;;;;;;9.23;3.13;;;;;;;13.29;69.33;100499.88;5065107;28;20020;-71
2023/05/02 06:42:31;;;;;;;10.87;3.00;;;;;;;13.40;69.28;100501.53;5043980;28;20110;-71
2023/05/02 06:44:57;;;;;;;11.48;3.22;;;;;;;13.58;69.02;100497.78;5058445;28;20028;-72
2023/05/02 06:47:23;;;;;;;9.93;2.67;;;;;;;13.81;68.70;100494.88;5040601;28;20044;-72
2023/05/02 06:49:52;;;;;;;9.10;2.53;;;;;;;14.18;67.91;100488.16;5058847;28;20515;-73
2023/05/02 06:52:18;;;;;;;8.37;2.53;;;;;;;14.55;67.27;100487.53;5043893;28;20743;-73
2023/05/02 06:54:43;;;;;;;9.25;2.63;;;;;;;14.80;66.94;100480.97;5058272;28;20047;-73
2023/05/02 06:57:09;;;;;;;7.93;2.83;;;;;;;15.01;66.54;100487.66;5058343;28;20025;-73
2023/05/02 06:59:35;;;;;;;9.20;2.55;;;;;;;15.21;66.20;100485.50;5059914;28;20049;-73
2023/05/02 07:02:00;;;;;;;10.47;2.83;;;;;;;15.20;66.07;100486.41;5043145;28;20082;-72
2023/05/02 07:04:26;;;;;;;9.77;2.80;;;;;;;15.09;66.24;100480.44;5062381;28;20081;-72
2023/05/02 07:06:51;;;;;;;6.83;2.80;;;;;;;15.00;66.56;100480.59;5078133;28;20277;-72
2023/05/02 07:09:17;;;;;;;10.37;2.90;;;;;;;14.94;66.82;100486.88;5078140;28;20025;-72
2023/05/02 07:11:42;;;;;;;9.83;2.87;;;;;;;14.90;66.99;100493.16;5060983;28;20028;-72
2023/05/02 07:14:08;;;;;;;9.10;3.00;;;;;;;14.98;67.01;100490.38;5058036;28;20744;-72
2023/05/02 07:16:33;;;;;;;9.40;2.63;;;;;;;15.25;66.66;100485.44;5051561;28;20110;-73
2023/05/02 07:19:00;;;;;;;7.43;2.60;;;;;;;15.34;66.48;100483.47;5057671;28;20025;-72
2023/05/02 07:21:25;;;;;;;11.05;2.90;;;;;;;15.47;66.07;100488.53;5058057;28;20417;-72
2023/05/02 07:23:51;;;;;;;10.45;2.78;;;;;;;15.63;65.73;100491.72;5066975;28;20103;-73
2023/05/02 07:26:17;;;;;;;10.40;2.70;;;;;;;15.82;65.21;100489.53;5060921;28;20462;-73
2023/05/02 07:28:43;;;;;;;9.88;2.63;;;;;;;15.97;65.09;100490.16;5039813;28;20025;-73
2023/05/02 07:31:08;;;;;;;8.67;2.60;;;;;;;16.09;64.38;100481.03;5057357;28;20025;-73
2023/05/02 07:33:34;;;;;;;9.33;3.00;;;;;;;16.25;64.41;100479.72;5066775;28;20021;-73
2023/05/02 07:36:00;;;;;;;7.83;2.50;;;;;;;16.40;64.05;100478.50;5077576;28;20033;-73
2023/05/02 07:38:26;;;;;;;8.80;2.55;;;;;;;16.55;63.61;100474.59;5077458;28;20770;-73
2023/05/02 07:40:52;;;;;;;10.52;3.20;;;;;;;16.71;63.40;100468.84;5074881;28;20033;-73
2023/05/02 07:43:17;;;;;;;7.10;2.37;;;;;;;16.86;62.98;100473.75;5057703;28;20021;-73
2023/05/02 07:45:43;;;;;;;7.13;2.30;;;;;;;17.09;62.95;100474.97;5057238;28;20142;-74
2023/05/02 07:48:08;;;;;;;7.17;2.27;;;;;;;17.29;62.09;100471.72;5057259;28;20033;-73
2023/05/02 07:50:33;;;;;;;6.93;2.10;;;;;;;17.52;61.71;100477.31;5061623;28;20035;-74
2023/05/02 07:52:59;;;;;;;8.80;2.13;;;;;;;17.71;61.45;100473.16;5057353;28;20036;-74
2023/05/02 07:55:27;;;;;;;6.80;1.97;;;;;;;17.81;60.76;100470.22;5039153;28;20122;-73
2023/05/02 07:57:53;;;;;;;5.97;1.83;;;;;;;18.02;60.00;100474.91;5057286;28;20052;-73
2023/05/02 08:00:18;;;;;;;9.53;2.00;;;;;;;18.30;59.46;100476.69;5062055;28;20048;-74
2023/05/02 08:02:44;;;;;;;7.38;2.53;;;;;;;18.52;57.92;100475.97;5074366;28;20059;-74
2023/05/02 08:05:10;;;;;;;6.80;1.97;;;;;;;18.62;57.39;100466.72;5056904;28;20055;-74
2023/05/02 08:07:37;;;;;;;9.95;2.28;;;;;;;18.73;57.25;100468.16;5056953;28;20394;-74
2023/05/02 08:10:03;;;;;;;6.43;1.80;;;;;;;18.88;57.40;100462.25;5068638;28;20051;-74
2023/05/02 08:12:28;;;;;;;7.18;2.40;;;;;;;19.06;57.20;100465.22;5056806;28;20025;-74
2023/05/02 08:14:53;;;;;;;7.43;2.00;;;;;;;19.20;56.91;100464.72;5056772;28;20535;-74
2023/05/02 08:17:20;;;;;;;8.80;2.13;;;;;;;19.34;56.94;100458.88;5071129;28;20508;-74
2023/05/02 08:19:46;;;;;;;6.90;2.27;;;;;;;19.39;56.25;100462.22;5038601;28;20036;-74
2023/05/02 08:22:11;;;;;;;5.60;1.70;;;;;;;19.44;55.86;100467.41;5038908;28;20083;-74
2023/05/02 08:24:36;;;;;;;7.37;2.00;;;;;;;19.57;56.09;100467.81;5056888;28;20260;-74
2023/05/02 08:27:05;;;;;;;5.60;1.57;;;;;;;19.79;55.24;100465.19;5056730;28;20029;-74
2023/05/02 08:29:32;;;;;;;10.23;2.47;;;;;;;20.02;53.90;100458.94;5056572;28;20025;-74
2023/05/02 08:31:57;;;;;;;9.25;2.38;;;;;;;19.99;54.11;100461.75;5056427;28;20495;-74
2023/05/02 08:34:22;;;;;;;5.60;1.60;;;;;;;19.97;54.89;100452.91;5072190;28;20492;-74
2023/05/02 08:36:48;;;;;;;9.00;2.37;;;;;;;20.08;54.57;100447.16;5076603;28;20055;-74
2023/05/02 08:39:13;;;;;;;6.27;2.00;;;;;;;20.18;54.20;100451.16;5060449;28;20021;-73
2023/05/02 08:41:39;;;;;;;10.77;2.33;;;;;;;20.26;53.97;100455.34;5066667;28;20437;-74
2023/05/02 08:44:06;;;;;;;10.43;2.17;;;;;;;20.28;53.65;100457.00;5056384;28;20075;-74
2023/05/02 08:46:35;;;;;;;7.53;2.10;;;;;;;20.21;53.33;100459.06;5038473;28;20021;-74
2023/05/02 08:49:02;;;;;;;7.68;2.00;;;;;;;20.17;53.29;100467.28;5056466;28;20481;-74
2023/05/02 08:51:31;;;;;;;5.85;2.10;;;;;;;20.23;53.09;100467.88;5060631;28;20056;-74
2023/05/02 08:53:57;;;;;;;8.60;2.08;;;;;;;20.33;52.94;100465.69;5056080;28;20119;-74
2023/05/02 08:56:24;;;;;;;6.55;2.40;;;;;;;20.37;52.11;100472.66;5056509;28;20047;-74
2023/05/02 08:58:49;;;;;;;6.67;2.00;;;;;;;20.33;51.71;100467.53;5072436;28;20049;-74
2023/05/02 09:01:18;;;;;;;6.22;1.70;;;;;;;20.30;52.54;100463.16;5060592;28;20493;-74
2023/05/02 09:03:45;;;;;;;6.75;1.90;;;;;;;20.38;52.15;100460.16;5064388;28;20029;-74
2023/05/02 09:06:19;;;;;;;7.05;1.90;;;;;;;20.34;52.10;100456.75;5076598;28;20032;-75
2023/05/02 09:08:48;;;;;;;5.35;1.67;;;;;;;20.43;52.40;100459.97;5076282;28;20039;-74
2023/05/02 09:11:13;;;;;;;6.47;1.90;;;;;;;20.72;52.12;100456.03;5063603;28;20021;-74
2023/05/02 09:13:44;;;;;;;8.30;1.60;;;;;;;20.97;50.83;100443.44;5056026;28;20025;-74
2023/05/02 09:16:15;;;;;;;6.28;1.60;;;;;;;21.17;50.78;100455.91;5069253;28;20387;-74
2023/05/02 09:18:46;;;;;;;6.68;1.48;;;;;;;21.33;50.61;100453.38;5038011;28;20025;-74
2023/05/02 09:21:19;;;;;;;5.67;1.50;;;;;;;21.49;50.28;100446.38;5056291;28;20459;-74
2023/05/02 09:23:47;;;;;;;7.22;1.63;;;;;;;21.69;49.61;100441.03;5064799;28;20107;-74
2023/05/02 09:26:20;;;;;;;6.90;1.58;;;;;;;21.81;48.62;100445.84;5060493;28;20033;-74
2023/05/02 09:28:50;;;;;;;5.30;1.38;;;;;;;21.84;49.07;100440.31;5056038;28;20054;-74
2023/05/02 09:31:21;;;;;;;5.65;1.52;;;;;;;21.92;48.79;100440.81;5055711;28;20029;-74
2023/05/02 09:33:47;;;;;;;5.00;1.60;;;;;;;21.97;48.08;100439.72;5066845;28;20052;-74
2023/05/02 09:36:18;;;;;;;5.18;1.40;;;;;;;21.94;48.04;100440.75;5076057;28;20056;-74
2023/05/02 09:38:47;;;;;;;6.28;1.60;;;;;;;22.11;47.76;100437.22;5062423;28;20032;-74
2023/05/02 09:41:12;;;;;;;7.10;1.88;;;;;;;22.27;47.49;100431.94;5068287;28;20025;-74
2023/05/02 09:43:39;;;;;;;6.47;1.80;;;;;;;22.26;47.08;100429.38;5041939;28;20032;-73
2023/05/02 09:46:09;;;;;;;6.63;1.60;;;;;;;21.98;47.31;100434.28;5059459;28;20267;-71
2023/05/02 09:48:54;;;;;;;5.18;1.52;;;;;;;21.96;46.99;100433.50;5059570;28;20474;-74
2023/05/02 09:51:21;;;;;;;7.25;1.80;;;;;;;22.10;46.39;100418.53;5045486;28;20033;-74
2023/05/02 09:53:46;;;;;;;5.75;1.73;;;;;;;22.30;46.24;100430.94;5064965;28;20020;-74
2023/05/02 09:56:12;;;;;;;5.73;1.40;;;;;;;22.45;45.82;100426.59;5079504;28;20040;-74
2023/05/02 09:58:38;;;;;;;7.53;1.30;;;;;;;22.61;44.79;100424.91;5079208;28;20483;-74
2023/05/02 10:01:04;;;;;;;6.87;1.40;;;;;;;22.73;44.60;100422.50;5065519;28;20029;-74
2023/05/02 10:03:31;;;;;;;4.70;1.20;;;;;;;22.87;44.40;100419.97;5065081;28;20020;-74
2023/05/02 10:05:57;;;;;;;5.65;1.40;;;;;;;23.06;44.30;100413.63;5079128;28;20510;-75
2023/05/02 10:08:27;;;;;;;7.57;1.20;;;;;;;23.20;41.81;100408.34;5079259;28;20428;-74
2023/05/02 10:10:55;;;;;;;5.60;1.10;;;;;;;23.26;42.55;100403.63;5070426;28;20481;-74
2023/05/02 10:13:23;;;;;;;4.45;1.20;;;;;;;23.32;42.22;100398.78;5058900;28;20031;-75
2023/05/02 10:15:57;;;;;;;5.18;1.08;;;;;;;23.47;41.88;100394.34;5066225;28;20480;-75
2023/05/02 10:18:32;;;;;;;6.43;1.23;;;;;;;23.66;41.52;100396.00;5064849;28;20028;-74
2023/05/02 10:21:02;;;;;;;7.97;1.30;;;;;;;23.89;40.76;100396.50;5059163;28;20021;-75
2023/05/02 10:23:28;;;;;;;6.50;1.00;;;;;;;24.00;40.32;100394.09;5059382;28;20119;-74
2023/05/02 10:25:56;;;;;;;5.97;1.10;;;;;;;24.13;39.55;100393.38;5041015;28;20029;-75
2023/05/02 10:28:21;;;;;;;4.95;1.20;;;;;;;24.19;39.50;100384.94;5058823;28;20032;-75
2023/05/02 10:30:49;;;;;;;7.37;1.83;;;;;;;24.25;39.47;100387.28;5058513;28;20393;-75
2023/05/02 10:33:18;;;;;;;5.07;1.20;;;;;;;24.30;39.52;100379.78;5065369;28;20044;-74
2023/05/02 10:35:45;;;;;;;4.00;0.98;;;;;;;24.26;38.65;100378.25;5078624;28;20385;-74
2023/05/02 10:38:12;;;;;;;5.28;1.10;;;;;;;24.14;38.23;100384.34;5070044;28;20025;-74
2023/05/02 10:40:40;;;;;;;4.38;1.00;;;;;;;24.06;37.48;100377.59;5068482;28;20036;-74
2023/05/02 10:43:06;;;;;;;6.23;1.20;;;;;;;24.06;38.22;100376.72;5040683;28;20166;-74
2023/05/02 10:45:36;;;;;;;4.28;1.20;;;;;;;24.19;36.80;100372.34;5058458;28;20048;-74
2023/05/02 10:48:24;;;;;;;4.05;1.20;;;;;;;24.22;37.73;100372.19;5058496;28;20024;-74
2023/05/02 10:51:02;;;;;;;5.65;1.05;;;;;;;24.41;37.43;100368.38;5065633;28;20104;-75
2023/05/02 10:53:28;;;;;;;5.87;1.30;;;;;;;24.54;37.28;100371.19;5070634;28;20086;-75
2023/05/02 10:56:13;;;;;;;5.00;1.00;;;;;;;24.51;35.81;100361.47;5078439;28;20048;-74
2023/05/02 10:58:39;;;;;;;5.63;1.10;;;;;;;24.61;36.69;100360.91;5077974;28;20285;-74
2023/05/02 11:01:23;;;;;;;5.30;1.10;;;;;;;24.57;36.73;100354.84;5063788;28;20033;-75
2023/05/02 11:03:55;;;;;;;4.68;0.70;;;;;;;24.70;36.36;100354.06;5039927;28;20036;-75
2023/05/02 11:06:20;;;;;;;4.35;0.90;;;;;;;24.70;36.33;100351.38;5058201;28;20029;-75
2023/05/02 11:08:46;;;;;;;3.97;0.90;;;;;;;24.71;35.91;100347.72;5061538;28;20026;-74
2023/05/02 11:11:38;;;;;;;3.80;0.93;;;;;;;24.74;36.11;100344.88;5066687;28;20031;-74
2023/05/02 11:14:03;;;;;;;3.67;0.80;;;;;;;24.97;35.60;100345.28;5047578;28;20044;-75
2023/05/02 11:17:00;;;;;;;6.17;1.00;;;;;;;24.98;35.02;100338.94;5072736;28;20078;-74
2023/05/02 11:19:27;;;;;;;4.80;1.00;;;;;;;25.02;34.49;100332.38;5057622;28;20060;-75
2023/05/02 11:21:53;;;;;;;4.45;1.08;;;;;;;24.97;35.52;100334.50;5057707;28;20124;-75
2023/05/02 11:24:41;;;;;;;5.68;0.90;;;;;;;24.94;33.66;100336.41;5058308;28;20049;-75
2023/05/02 11:27:40;;;;;;;3.20;0.80;;;;;;;24.93;33.95;100326.59;5057956;28;20021;-75